Sweeney, South Dakota
Current Conditions -  °F | °C
As of 1:53 PM on Thursday 18 Dec 2014 (Local Time) from KPIR Reporting Station
Overcast Overcast  
Wind Chill: -6°   Ceiling: 1100
Heat Index: -2°   Visibility: 8mi
Dew Point: -4°   Wind: 7mph
Humidity: 85%   Direction: 150°SSE
Pressure: 30.07"   Gusts: NA
Location:  43.909°N, 100.128°W
Report Text: KPIR 181953Z AUTO 15006KT 8SM OVC011 M02/M04 A3007 RMK AO2 SLP205 T10221044
Loading
Personal Weather Stations






























Interactive Weather Map New forecast layout! Learn more

10-Day Weather Forecast

Advertisements
Track Severe Weather on mobile